Time;durP1;ratioP1;P1;durP2;ratioP2;P2;SDS_P1;SDS_P2;PMS_P1;PMS_P2;Temp;Humidity;BMP_temperature;BMP_pressure;BME280_temperature;BME280_humidity;BME280_pressure;Samples;Min_cycle;Max_cycle;Signal;HPM_P1;HPM_P2
2022/07/08 00:02:15;;;;;;;1.77;1.07;;;18.30;99.90;;;;;;5063540;28;20224;-49
2022/07/08 00:04:44;;;;;;;1.80;0.87;;;18.40;99.90;;;;;;5073512;28;20221;-49
2022/07/08 00:07:11;;;;;;;2.93;0.80;;;18.30;99.90;;;;;;5065740;28;20231;-49
2022/07/08 00:09:39;;;;;;;0.83;0.83;;;18.30;99.90;;;;;;5074425;28;20223;-49
2022/07/08 00:12:06;;;;;;;1.13;1.13;;;18.30;99.90;;;;;;5063449;28;20236;-49
2022/07/08 00:14:33;;;;;;;0.80;0.80;;;18.30;99.90;;;;;;5072349;28;20798;-49
2022/07/08 00:17:00;;;;;;;1.13;1.03;;;18.10;99.90;;;;;;5063025;28;20220;-49
2022/07/08 00:19:27;;;;;;;0.70;0.70;;;18.10;99.90;;;;;;5071399;28;20632;-49
2022/07/08 00:21:56;;;;;;;0.90;0.90;;;18.10;99.90;;;;;;5069592;28;20221;-48
2022/07/08 00:24:22;;;;;;;1.10;1.00;;;18.10;99.90;;;;;;5073243;28;20221;-49
2022/07/08 00:26:49;;;;;;;0.97;0.93;;;18.00;99.90;;;;;;5063254;28;20678;-49
2022/07/08 00:29:17;;;;;;;0.60;0.60;;;18.00;99.90;;;;;;5073116;28;20204;-49
2022/07/08 00:31:44;;;;;;;1.47;0.80;;;18.10;99.90;;;;;;5070196;28;20225;-49
2022/07/08 00:34:11;;;;;;;0.60;0.60;;;18.00;99.90;;;;;;5064925;28;20189;-49
2022/07/08 00:36:38;;;;;;;0.93;0.77;;;18.00;99.90;;;;;;5072377;28;20197;-49
2022/07/08 00:39:06;;;;;;;0.80;0.80;;;18.00;99.90;;;;;;5072815;28;20209;-49
2022/07/08 00:41:34;;;;;;;0.60;0.60;;;18.10;99.90;;;;;;5071034;28;20279;-49
2022/07/08 00:44:01;;;;;;;0.80;0.80;;;18.10;99.90;;;;;;5072724;28;20300;-49
2022/07/08 00:46:28;;;;;;;2.33;0.87;;;18.10;99.90;;;;;;5071931;28;20216;-49
2022/07/08 00:48:55;;;;;;;1.30;0.73;;;18.20;99.90;;;;;;5071727;28;20201;-49
2022/07/08 00:51:22;;;;;;;0.53;0.53;;;18.10;99.90;;;;;;5069421;28;20232;-49
2022/07/08 00:53:52;;;;;;;0.80;0.80;;;18.10;99.90;;;;;;5072567;28;20197;-49
2022/07/08 00:56:21;;;;;;;0.70;0.70;;;18.10;99.90;;;;;;5071965;28;20258;-49
2022/07/08 00:58:49;;;;;;;0.67;0.67;;;18.20;99.90;;;;;;5071808;28;20625;-49
2022/07/08 01:01:16;;;;;;;0.50;0.50;;;18.20;99.90;;;;;;5066413;28;20309;-49
2022/07/08 01:03:45;;;;;;;1.77;0.80;;;18.20;99.90;;;;;;5068032;28;20205;-49
2022/07/08 01:06:12;;;;;;;1.60;0.63;;;18.10;99.90;;;;;;5064733;28;20579;-49
2022/07/08 01:08:39;;;;;;;0.60;0.60;;;18.10;99.90;;;;;;5071565;28;20201;-49
2022/07/08 01:11:07;;;;;;;1.27;0.80;;;18.10;99.90;;;;;;5053579;22;1143951;-55
2022/07/08 01:13:36;;;;;;;1.00;0.60;;;18.00;99.90;;;;;;5072970;28;20294;-55
2022/07/08 01:16:03;;;;;;;1.47;0.53;;;18.10;99.90;;;;;;5072797;28;20671;-55
2022/07/08 01:18:32;;;;;;;0.73;0.73;;;18.10;99.90;;;;;;5065530;28;20206;-55
2022/07/08 01:21:00;;;;;;;0.67;0.63;;;18.10;99.90;;;;;;5065083;28;20229;-55
2022/07/08 01:23:27;;;;;;;0.60;0.50;;;18.00;99.90;;;;;;5071839;28;20192;-55
2022/07/08 01:25:56;;;;;;;0.80;0.80;;;18.10;99.90;;;;;;5070702;28;20584;-55
2022/07/08 01:28:23;;;;;;;0.50;0.50;;;18.00;99.90;;;;;;5071538;28;20198;-55
2022/07/08 01:30:50;;;;;;;0.60;0.60;;;18.00;99.90;;;;;;5070854;28;20204;-55
2022/07/08 01:33:17;;;;;;;0.60;0.60;;;18.00;99.90;;;;;;5071081;28;20254;-55
2022/07/08 01:35:45;;;;;;;0.63;0.63;;;17.90;99.90;;;;;;5070370;28;20272;-56
2022/07/08 01:38:13;;;;;;;0.73;0.57;;;17.90;99.90;;;;;;5071461;28;20593;-55
2022/07/08 01:40:40;;;;;;;0.57;0.57;;;17.90;99.90;;;;;;5068442;28;20209;-55
2022/07/08 01:43:07;;;;;;;0.40;0.40;;;17.90;99.90;;;;;;5069987;28;20208;-55
2022/07/08 01:45:34;;;;;;;0.60;0.60;;;17.90;99.90;;;;;;5069786;28;20271;-55
2022/07/08 01:48:02;;;;;;;1.10;0.80;;;17.90;99.90;;;;;;5075329;28;20262;-56
2022/07/08 01:50:29;;;;;;;1.60;0.67;;;18.00;99.90;;;;;;5071541;28;20201;-55
2022/07/08 01:52:56;;;;;;;1.10;0.63;;;18.00;99.90;;;;;;5070262;28;20275;-55
2022/07/08 01:55:24;;;;;;;0.60;0.60;;;17.90;99.90;;;;;;5070323;28;20717;-55
2022/07/08 01:57:51;;;;;;;0.60;0.60;;;17.90;99.90;;;;;;5070979;28;20205;-55
2022/07/08 02:00:19;;;;;;;0.67;0.60;;;18.00;99.90;;;;;;5070960;28;20205;-55
2022/07/08 02:02:46;;;;;;;1.33;0.60;;;18.00;99.90;;;;;;5071088;28;20601;-55
2022/07/08 02:05:14;;;;;;;0.60;0.60;;;18.00;99.90;;;;;;5071972;28;20225;-55
2022/07/08 02:07:42;;;;;;;0.80;0.80;;;18.00;99.90;;;;;;5061046;28;20211;-55
2022/07/08 02:10:10;;;;;;;2.33;0.50;;;18.00;99.90;;;;;;5071591;28;20225;-55
2022/07/08 02:12:38;;;;;;;2.30;0.80;;;18.00;99.90;;;;;;5070229;28;20233;-55
2022/07/08 02:15:07;;;;;;;4.17;0.80;;;17.90;99.90;;;;;;5071457;28;20193;-55
2022/07/08 02:17:36;;;;;;;1.60;0.70;;;17.90;99.90;;;;;;5061753;28;20208;-55
2022/07/08 02:20:04;;;;;;;0.67;0.67;;;17.80;99.90;;;;;;5071417;28;20200;-55
2022/07/08 02:22:31;;;;;;;0.90;0.73;;;17.80;99.90;;;;;;5069878;28;20251;-55
2022/07/08 02:24:58;;;;;;;0.90;0.90;;;17.80;99.90;;;;;;5071294;28;20594;-55
2022/07/08 02:27:26;;;;;;;0.80;0.80;;;17.80;99.90;;;;;;5067487;28;20197;-55
2022/07/08 02:29:54;;;;;;;1.17;0.50;;;17.80;99.90;;;;;;5070535;28;20202;-55
2022/07/08 02:32:21;;;;;;;0.57;0.57;;;17.80;99.90;;;;;;5070744;28;20217;-55
2022/07/08 02:34:48;;;;;;;0.57;0.57;;;17.80;99.90;;;;;;5070011;28;20200;-55
2022/07/08 02:37:15;;;;;;;0.90;0.90;;;17.80;99.90;;;;;;5067978;28;20197;-55
2022/07/08 02:39:44;;;;;;;0.50;0.50;;;17.80;99.90;;;;;;5069897;28;20197;-55
2022/07/08 02:42:11;;;;;;;0.50;0.50;;;17.90;99.90;;;;;;5062395;28;20271;-55
2022/07/08 02:44:38;;;;;;;0.60;0.60;;;17.80;99.90;;;;;;5070222;28;20229;-56
2022/07/08 02:47:07;;;;;;;0.60;0.60;;;17.80;99.90;;;;;;5063548;28;20192;-55
2022/07/08 02:49:34;;;;;;;1.70;0.80;;;17.80;99.90;;;;;;5066275;28;20225;-55
2022/07/08 02:52:01;;;;;;;1.33;0.63;;;17.70;99.90;;;;;;5070079;28;20301;-55
2022/07/08 02:54:28;;;;;;;0.93;0.60;;;17.70;99.90;;;;;;5069217;28;20274;-55
2022/07/08 02:56:55;;;;;;;0.53;0.53;;;17.60;99.90;;;;;;5068558;28;20608;-55
2022/07/08 02:59:22;;;;;;;0.70;0.70;;;17.60;99.90;;;;;;5070583;28;20189;-55
2022/07/08 03:01:49;;;;;;;1.00;0.60;;;17.60;99.90;;;;;;5067186;28;20272;-55
2022/07/08 03:04:18;;;;;;;0.90;0.90;;;17.60;99.90;;;;;;5064357;28;20206;-55
2022/07/08 03:06:45;;;;;;;0.60;0.60;;;17.50;99.90;;;;;;5064847;28;20205;-56
2022/07/08 03:09:12;;;;;;;0.80;0.80;;;17.50;99.90;;;;;;5066667;28;20205;-55
2022/07/08 03:11:39;;;;;;;0.70;0.70;;;17.40;99.90;;;;;;5069444;28;20644;-55
2022/07/08 03:14:06;;;;;;;1.60;0.90;;;17.40;99.90;;;;;;5063700;28;20198;-55
2022/07/08 03:16:33;;;;;;;0.40;0.40;;;17.30;99.90;;;;;;5064392;28;20667;-55
2022/07/08 03:19:00;;;;;;;0.67;0.60;;;17.30;99.90;;;;;;5064954;28;20202;-55
2022/07/08 03:21:28;;;;;;;1.70;0.80;;;17.30;99.90;;;;;;5059078;28;20241;-55
2022/07/08 03:23:55;;;;;;;0.60;0.60;;;17.30;99.90;;;;;;5068215;28;20201;-55
2022/07/08 03:26:22;;;;;;;0.70;0.70;;;17.30;99.90;;;;;;5068494;28;20761;-55
2022/07/08 03:28:49;;;;;;;0.70;0.70;;;17.30;99.90;;;;;;5069268;28;20208;-55
2022/07/08 03:31:16;;;;;;;0.80;0.80;;;17.30;99.90;;;;;;5068667;28;20224;-55
2022/07/08 03:33:43;;;;;;;1.00;1.00;;;17.20;99.90;;;;;;5069381;28;20201;-56
2022/07/08 03:36:11;;;;;;;0.80;0.80;;;17.20;99.90;;;;;;5068732;28;20205;-55
2022/07/08 03:38:39;;;;;;;1.47;0.70;;;17.20;99.90;;;;;;5066879;28;20212;-55
2022/07/08 03:41:20;;;;;;;0.80;0.80;;;17.20;99.90;;;;;;5066383;28;20241;-55
2022/07/08 03:43:47;;;;;;;1.67;0.70;;;17.20;99.90;;;;;;5067885;28;20659;-55
2022/07/08 03:46:14;;;;;;;1.83;0.70;;;17.20;99.90;;;;;;5066979;28;20278;-55
2022/07/08 03:48:42;;;;;;;0.60;0.60;;;17.20;99.90;;;;;;5069276;28;20333;-55
2022/07/08 03:51:09;;;;;;;1.17;0.80;;;17.10;99.90;;;;;;5068242;28;20274;-55
2022/07/08 03:53:36;;;;;;;0.97;0.87;;;17.20;99.90;;;;;;5069343;28;20208;-56
2022/07/08 03:56:06;;;;;;;0.73;0.73;;;17.20;99.90;;;;;;5066888;28;20205;-55
2022/07/08 03:58:33;;;;;;;0.90;0.90;;;17.20;99.90;;;;;;5068176;28;20742;-56
2022/07/08 04:01:00;;;;;;;0.70;0.70;;;17.20;99.90;;;;;;5070497;28;20217;-55
2022/07/08 04:03:28;;;;;;;0.80;0.80;;;17.30;99.90;;;;;;5069954;28;20623;-56
2022/07/08 04:05:55;;;;;;;1.53;1.10;;;17.30;99.90;;;;;;5071154;28;20266;-55
2022/07/08 04:08:22;;;;;;;1.00;1.00;;;17.20;99.90;;;;;;5072982;28;20197;-55
2022/07/08 04:10:49;;;;;;;0.80;0.80;;;17.20;99.90;;;;;;5072602;28;20276;-55
2022/07/08 04:13:17;;;;;;;0.70;0.70;;;17.20;99.90;;;;;;5072104;28;20189;-55
2022/07/08 04:15:44;;;;;;;0.97;0.97;;;17.20;99.90;;;;;;5072552;28;20254;-55
2022/07/08 04:18:12;;;;;;;0.77;0.77;;;17.20;99.90;;;;;;5072090;28;20266;-55
2022/07/08 04:20:39;;;;;;;1.27;0.60;;;17.20;99.90;;;;;;5072845;28;20228;-55
2022/07/08 04:23:06;;;;;;;0.73;0.73;;;17.20;99.90;;;;;;5072845;28;20201;-55
2022/07/08 04:25:33;;;;;;;1.47;0.90;;;17.20;99.90;;;;;;5068631;28;20300;-55
2022/07/08 04:28:00;;;;;;;0.60;0.60;;;17.20;99.90;;;;;;5071175;28;20216;-55
2022/07/08 04:30:29;;;;;;;0.60;0.60;;;17.20;99.90;;;;;;5072331;28;20193;-55
2022/07/08 04:32:56;;;;;;;2.50;1.43;;;17.30;99.90;;;;;;5071577;28;20266;-55
2022/07/08 04:35:23;;;;;;;2.70;0.80;;;17.40;99.90;;;;;;5068547;28;20193;-56
2022/07/08 04:37:50;;;;;;;0.80;0.80;;;17.40;99.90;;;;;;5073832;28;20259;-55
2022/07/08 04:40:17;;;;;;;1.47;1.00;;;17.30;99.90;;;;;;5065044;28;20200;-55
2022/07/08 04:42:44;;;;;;;1.10;1.00;;;17.30;99.90;;;;;;5062734;28;20299;-55
2022/07/08 04:45:12;;;;;;;1.13;1.13;;;17.40;99.90;;;;;;5068942;28;20286;-56
2022/07/08 04:47:40;;;;;;;2.20;1.00;;;17.40;99.90;;;;;;5071068;28;20256;-56
2022/07/08 04:50:08;;;;;;;1.50;0.90;;;17.40;99.90;;;;;;5073329;28;20200;-55
2022/07/08 04:52:35;;;;;;;0.73;0.70;;;17.50;99.90;;;;;;5073067;28;20633;-55
2022/07/08 04:55:02;;;;;;;0.90;0.90;;;17.50;99.90;;;;;;5073334;28;20197;-55
2022/07/08 04:57:32;;;;;;;0.80;0.80;;;17.50;99.90;;;;;;5071818;28;20201;-55
2022/07/08 04:59:59;;;;;;;0.80;0.70;;;17.50;99.90;;;;;;5072997;28;20287;-55
2022/07/08 05:02:26;;;;;;;1.63;0.90;;;17.60;99.90;;;;;;5072606;28;20256;-55
2022/07/08 05:04:55;;;;;;;0.80;0.80;;;17.70;99.90;;;;;;5072737;28;20311;-55
2022/07/08 05:07:22;;;;;;;1.00;1.00;;;17.80;99.90;;;;;;5071135;28;20205;-55
2022/07/08 05:09:49;;;;;;;1.00;0.90;;;17.80;99.90;;;;;;5072853;28;20193;-55
2022/07/08 05:12:16;;;;;;;1.80;0.90;;;17.80;99.90;;;;;;5072054;28;20229;-56
2022/07/08 05:14:43;;;;;;;0.60;0.60;;;17.90;99.90;;;;;;5073117;28;20555;-55
2022/07/08 05:17:10;;;;;;;0.83;0.83;;;17.90;99.90;;;;;;5070253;28;20201;-56
2022/07/08 05:19:37;;;;;;;1.10;1.10;;;17.90;99.90;;;;;;5072829;28;20193;-55
2022/07/08 05:22:05;;;;;;;2.00;1.27;;;17.80;99.90;;;;;;5072113;28;20221;-55
2022/07/08 05:24:32;;;;;;;2.77;1.50;;;18.30;99.90;;;;;;5072526;28;20209;-55
2022/07/08 05:26:59;;;;;;;1.83;1.50;;;19.20;99.90;;;;;;5070741;28;20217;-55
2022/07/08 05:29:26;;;;;;;2.00;1.80;;;19.30;99.90;;;;;;5072555;28;20683;-55
2022/07/08 05:31:54;;;;;;;2.50;1.60;;;19.50;99.90;;;;;;5071928;28;20278;-55
2022/07/08 05:34:21;;;;;;;4.77;1.27;;;20.40;99.90;;;;;;5072644;28;20216;-55
2022/07/08 05:36:48;;;;;;;2.43;1.27;;;21.20;99.90;;;;;;5071030;28;20750;-55
2022/07/08 05:39:19;;;;;;;3.10;1.40;;;22.00;99.90;;;;;;5072322;28;20254;-55
2022/07/08 05:41:46;;;;;;;1.43;1.33;;;22.10;99.90;;;;;;5071499;28;20718;-55
2022/07/08 05:44:13;;;;;;;1.50;1.40;;;22.20;99.90;;;;;;5072535;28;20625;-55
2022/07/08 05:46:40;;;;;;;2.67;1.03;;;22.10;99.90;;;;;;5070629;28;20313;-55
2022/07/08 05:49:07;;;;;;;4.23;1.37;;;22.50;99.90;;;;;;5072009;28;20193;-55
2022/07/08 05:51:34;;;;;;;0.97;0.60;;;22.90;99.90;;;;;;5071433;28;20684;-56
2022/07/08 05:54:01;;;;;;;1.70;0.93;;;23.50;99.90;;;;;;5071993;28;20262;-56
2022/07/08 05:56:29;;;;;;;1.50;1.40;;;23.50;99.90;;;;;;5067600;28;20228;-56
2022/07/08 05:58:56;;;;;;;2.30;1.30;;;23.60;99.90;;;;;;5069533;28;20197;-56
2022/07/08 06:01:23;;;;;;;0.90;0.90;;;23.50;99.90;;;;;;5070017;28;21269;-55
2022/07/08 06:03:50;;;;;;;4.07;1.43;;;23.50;99.90;;;;;;5071728;28;20209;-56
2022/07/08 06:06:17;;;;;;;2.27;1.00;;;22.70;99.90;;;;;;5071273;28;20221;-56
2022/07/08 06:08:44;;;;;;;2.93;1.40;;;22.60;99.90;;;;;;5064448;28;20208;-56
2022/07/08 06:11:11;;;;;;;2.37;1.40;;;22.20;99.90;;;;;;5068896;28;20248;-56
2022/07/08 06:13:39;;;;;;;1.97;1.43;;;21.20;99.90;;;;;;5062120;28;20664;-56
2022/07/08 06:16:07;;;;;;;2.10;1.40;;;21.20;99.90;;;;;;5070435;28;20338;-56
2022/07/08 06:18:35;;;;;;;2.60;2.07;;;21.90;99.90;;;;;;5068813;28;20296;-56
2022/07/08 06:21:03;;;;;;;2.53;1.60;;;22.00;99.90;;;;;;5071209;28;20227;-56
2022/07/08 06:23:31;;;;;;;1.47;1.37;;;21.50;99.90;;;;;;5070524;28;20239;-56
2022/07/08 06:25:58;;;;;;;3.30;1.40;;;21.60;99.90;;;;;;5065990;28;20283;-56
2022/07/08 06:28:25;;;;;;;4.70;2.40;;;21.20;99.90;;;;;;5069142;28;20193;-55
2022/07/08 06:30:54;;;;;;;2.53;1.63;;;20.40;99.90;;;;;;5068155;28;20204;-55
2022/07/08 06:33:21;;;;;;;2.40;1.60;;;20.30;99.90;;;;;;5069633;28;20235;-55
2022/07/08 06:35:48;;;;;;;2.07;1.50;;;20.60;99.90;;;;;;5069133;28;20197;-56
2022/07/08 06:38:15;;;;;;;1.57;1.47;;;21.40;99.90;;;;;;5066069;28;20197;-56
2022/07/08 06:40:42;;;;;;;1.20;1.20;;;22.10;99.90;;;;;;5070120;28;20210;-56
2022/07/08 06:43:09;;;;;;;2.30;1.80;;;23.10;99.90;;;;;;5069215;28;20277;-56
2022/07/08 06:45:36;;;;;;;3.07;1.50;;;23.70;99.90;;;;;;5069643;28;20334;-56
2022/07/08 06:48:05;;;;;;;2.50;1.53;;;23.90;99.90;;;;;;5069931;28;20254;-56
2022/07/08 06:50:33;;;;;;;2.43;2.17;;;24.00;99.90;;;;;;5070716;28;20570;-56
2022/07/08 06:53:00;;;;;;;2.10;1.20;;;23.20;99.90;;;;;;5068734;28;20743;-56
2022/07/08 06:55:27;;;;;;;1.47;1.37;;;23.70;99.90;;;;;;5069998;28;20563;-57
2022/07/08 06:57:54;;;;;;;1.53;1.27;;;24.10;99.90;;;;;;5069677;28;20197;-57
2022/07/08 07:00:22;;;;;;;1.13;1.00;;;24.80;99.90;;;;;;5069634;28;20224;-57
2022/07/08 07:02:49;;;;;;;1.70;1.60;;;25.50;99.90;;;;;;5064271;28;20312;-57
2022/07/08 07:05:19;;;;;;;1.07;1.07;;;26.20;99.90;;;;;;5063561;28;20289;-57
2022/07/08 07:07:46;;;;;;;5.93;1.00;;;26.70;99.90;;;;;;5067399;28;20322;-57
2022/07/08 07:10:14;;;;;;;1.43;1.40;;;27.30;99.90;;;;;;5067898;28;20649;-58
2022/07/08 07:12:41;;;;;;;2.43;1.20;;;27.00;99.90;;;;;;5068590;28;20263;-57
2022/07/08 07:15:09;;;;;;;1.30;1.20;;;26.90;99.90;;;;;;5069350;28;20189;-57
2022/07/08 07:17:36;;;;;;;2.30;1.10;;;26.90;99.90;;;;;;5069322;28;20193;-57
2022/07/08 07:20:04;;;;;;;2.50;1.40;;;27.90;99.90;;;;;;5066839;28;20197;-57
2022/07/08 07:22:32;;;;;;;1.80;1.05;;;28.30;99.90;;;;;;5060589;28;20923;-56
2022/07/08 07:25:03;;;;;;;4.05;1.48;;;28.20;99.90;;;;;;5067450;28;20266;-56
2022/07/08 07:27:30;;;;;;;2.93;1.23;;;27.50;99.90;;;;;;5068959;28;20755;-56
2022/07/08 07:29:56;;;;;;;1.63;1.50;;;27.80;99.90;;;;;;5067231;28;20249;-56
2022/07/08 07:32:24;;;;;;;2.83;1.57;;;26.60;99.90;;;;;;5069857;28;20310;-56
2022/07/08 07:34:51;;;;;;;1.40;1.40;;;26.70;99.90;;;;;;5070763;28;20258;-56
2022/07/08 07:37:17;;;;;;;2.00;1.40;;;26.80;99.90;;;;;;5069440;28;20196;-58
2022/07/08 07:39:46;;;;;;;2.97;1.70;;;27.40;99.90;;;;;;5067686;28;20262;-57
2022/07/08 07:42:13;;;;;;;3.95;1.42;;;28.00;99.90;;;;;;5071793;28;20323;-57
2022/07/08 07:44:40;;;;;;;1.53;1.20;;;28.00;99.90;;;;;;5074744;28;20201;-56
2022/07/08 07:47:08;;;;;;;4.93;1.47;;;27.20;99.90;;;;;;5074276;28;20217;-57
2022/07/08 07:49:35;;;;;;;2.17;1.93;;;27.50;99.90;;;;;;5072338;28;20262;-56
2022/07/08 07:52:03;;;;;;;3.73;1.57;;;26.90;99.90;;;;;;5069634;28;20667;-57
2022/07/08 07:54:30;;;;;;;1.60;1.50;;;26.50;99.90;;;;;;5074169;28;20209;-57
2022/07/08 07:56:58;;;;;;;3.57;1.93;;;26.30;99.90;;;;;;5074268;28;20251;-56
2022/07/08 07:59:25;;;;;;;4.50;1.73;;;26.20;99.90;;;;;;5073674;28;20560;-57
2022/07/08 08:01:52;;;;;;;2.00;1.90;;;26.00;99.90;;;;;;5067828;28;20698;-57
2022/07/08 08:04:19;;;;;;;2.23;2.23;;;26.20;99.90;;;;;;5073971;28;20663;-57
2022/07/08 08:06:46;;;;;;;1.30;1.30;;;25.90;99.90;;;;;;5073940;28;20247;-57
2022/07/08 08:09:13;;;;;;;2.97;1.97;;;25.80;99.90;;;;;;5070182;28;20229;-57
2022/07/08 08:11:40;;;;;;;1.63;1.33;;;26.00;99.90;;;;;;5070954;28;20283;-57
2022/07/08 08:14:08;;;;;;;1.80;1.70;;;25.90;99.90;;;;;;5073884;28;20255;-57
2022/07/08 08:16:35;;;;;;;2.47;2.20;;;25.80;99.90;;;;;;5074042;28;20197;-57
2022/07/08 08:19:02;;;;;;;2.23;2.03;;;26.10;99.90;;;;;;5073107;28;20557;-57
2022/07/08 08:21:30;;;;;;;4.87;1.53;;;26.80;99.90;;;;;;5065178;28;20229;-57
2022/07/08 08:23:57;;;;;;;2.40;1.30;;;26.60;99.90;;;;;;5073987;28;20625;-57
2022/07/08 08:26:24;;;;;;;3.60;2.10;;;25.80;99.90;;;;;;5072978;28;20221;-57
2022/07/08 08:28:51;;;;;;;4.30;2.20;;;25.60;99.90;;;;;;5065260;28;20243;-57
2022/07/08 08:31:19;;;;;;;2.87;1.87;;;26.20;99.90;;;;;;5070758;28;20351;-57
2022/07/08 08:33:46;;;;;;;2.33;1.90;;;26.10;99.90;;;;;;5073685;28;20817;-56
2022/07/08 08:36:13;;;;;;;4.37;2.17;;;26.40;99.90;;;;;;5067934;28;20624;-57
2022/07/08 08:38:40;;;;;;;2.10;2.00;;;26.60;99.90;;;;;;5072483;28;20620;-57
2022/07/08 08:41:08;;;;;;;1.67;1.23;;;27.20;99.40;;;;;;5071754;28;20767;-57
2022/07/08 08:43:35;;;;;;;3.93;1.70;;;27.80;99.00;;;;;;5072235;28;20223;-57
2022/07/08 08:46:02;;;;;;;1.70;1.20;;;28.20;98.90;;;;;;5066255;28;20327;-57
2022/07/08 08:48:36;;;;;;;1.47;1.37;;;28.40;99.90;;;;;;5072353;28;20289;-57
2022/07/08 08:51:07;;;;;;;2.63;0.83;;;28.40;98.10;;;;;;5070998;28;20213;-57
2022/07/08 08:53:40;;;;;;;1.73;1.60;;;28.70;96.10;;;;;;5073176;28;20237;-57
2022/07/08 08:56:09;;;;;;;2.42;1.45;;;28.50;95.40;;;;;;5073332;28;20284;-57
2022/07/08 08:58:38;;;;;;;3.67;1.80;;;28.10;96.90;;;;;;5061875;28;20279;-57
2022/07/08 09:01:06;;;;;;;1.63;1.52;;;27.80;99.30;;;;;;5070048;28;20231;-57
2022/07/08 09:03:35;;;;;;;5.30;2.03;;;28.20;95.50;;;;;;5063723;28;20197;-57
2022/07/08 09:06:02;;;;;;;4.20;1.17;;;28.10;96.00;;;;;;5072988;28;20279;-57
2022/07/08 09:08:29;;;;;;;1.10;0.93;;;27.40;98.10;;;;;;5065313;28;20201;-56
2022/07/08 09:10:56;;;;;;;1.88;1.30;;;27.00;98.40;;;;;;5070011;28;20295;-56
2022/07/08 09:13:25;;;;;;;2.33;1.53;;;27.80;99.50;;;;;;5070251;28;20493;-57
2022/07/08 09:15:54;;;;;;;1.70;1.30;;;28.20;96.60;;;;;;5067358;28;20446;-57
2022/07/08 09:18:23;;;;;;;1.42;1.33;;;28.50;98.50;;;;;;5067653;28;20563;-57
2022/07/08 09:20:52;;;;;;;3.78;1.70;;;28.40;95.30;;;;;;5071450;28;20209;-56
2022/07/08 09:23:21;;;;;;;3.30;1.90;;;28.70;96.70;;;;;;5071635;28;20251;-56
2022/07/08 09:25:50;;;;;;;1.67;1.58;;;28.40;96.50;;;;;;5072502;28;20193;-56
2022/07/08 09:28:28;;;;;;;1.42;1.30;;;28.70;97.30;;;;;;5061479;28;20217;-56
2022/07/08 09:30:56;;;;;;;2.10;1.40;;;28.70;95.70;;;;;;5069008;28;20585;-57
2022/07/08 09:33:25;;;;;;;2.05;1.90;;;29.40;97.50;;;;;;5060986;28;20262;-57
2022/07/08 09:35:55;;;;;;;4.53;1.98;;;29.00;96.70;;;;;;5071752;28;20288;-56
2022/07/08 09:38:23;;;;;;;1.90;1.15;;;28.80;97.10;;;;;;5064587;28;20744;-57
2022/07/08 09:40:57;;;;;;;1.58;1.20;;;29.00;94.90;;;;;;5069155;28;20225;-56
2022/07/08 09:43:25;;;;;;;2.83;1.48;;;29.40;96.20;;;;;;5065240;28;20224;-57
2022/07/08 09:45:52;;;;;;;1.77;1.17;;;29.50;94.10;;;;;;5072272;28;20204;-56
2022/07/08 09:48:20;;;;;;;4.05;1.80;;;29.10;95.50;;;;;;5063036;28;20304;-57
2022/07/08 09:50:48;;;;;;;4.18;1.63;;;28.80;94.40;;;;;;5072028;28;20653;-57
2022/07/08 09:53:22;;;;;;;1.50;1.15;;;28.60;93.70;;;;;;5069590;28;20693;-57
2022/07/08 09:55:51;;;;;;;3.28;1.38;;;28.70;95.30;;;;;;5072317;28;20235;-57
2022/07/08 09:58:20;;;;;;;3.42;1.30;;;27.40;95.40;;;;;;5066257;28;20237;-57
2022/07/08 10:00:49;;;;;;;5.38;1.27;;;28.20;94.70;;;;;;5068811;28;20197;-57
2022/07/08 10:03:20;;;;;;;2.20;1.73;;;28.50;95.30;;;;;;5070364;28;20274;-56
2022/07/08 10:05:47;;;;;;;2.05;1.67;;;28.10;96.10;;;;;;5071536;28;20205;-57
2022/07/08 10:08:15;;;;;;;1.75;1.63;;;28.30;95.20;;;;;;5066927;28;20221;-56
2022/07/08 10:10:46;;;;;;;1.60;0.98;;;28.50;93.80;;;;;;5057429;28;20774;-57
2022/07/08 10:13:15;;;;;;;2.50;1.10;;;29.10;95.30;;;;;;5065909;28;20246;-57
2022/07/08 10:15:43;;;;;;;1.95;1.40;;;29.10;96.00;;;;;;5071654;28;20379;-56
2022/07/08 10:18:15;;;;;;;2.08;1.10;;;28.70;95.30;;;;;;5066914;28;20206;-56
2022/07/08 10:20:47;;;;;;;1.10;1.10;;;28.20;95.90;;;;;;5065910;28;20671;-57
2022/07/08 10:23:23;;;;;;;1.58;1.10;;;28.00;94.80;;;;;;5061703;28;20202;-57
2022/07/08 10:25:53;;;;;;;2.78;1.95;;;27.30;95.30;;;;;;5071330;28;20200;-56
2022/07/08 10:28:33;;;;;;;1.87;1.67;;;25.40;97.30;;;;;;5064706;28;20694;-57
2022/07/08 10:31:00;;;;;;;1.85;1.73;;;26.20;99.90;;;;;;5065235;28;20228;-57
2022/07/08 10:33:29;;;;;;;3.10;1.47;;;27.30;95.10;;;;;;5070811;28;20223;-56
2022/07/08 10:36:05;;;;;;;2.70;1.42;;;27.70;97.20;;;;;;5071308;28;20228;-57
2022/07/08 10:38:35;;;;;;;1.87;1.77;;;27.50;98.30;;;;;;5063724;28;20567;-56
2022/07/08 10:41:05;;;;;;;2.00;1.53;;;27.20;97.70;;;;;;5060050;28;20308;-56
2022/07/08 10:43:32;;;;;;;1.30;1.10;;;27.20;97.90;;;;;;5071097;28;20231;-56
2022/07/08 10:46:07;;;;;;;11.03;2.07;;;27.10;98.00;;;;;;5071175;28;20731;-56
2022/07/08 10:48:54;;;;;;;3.70;1.73;;;27.20;96.70;;;;;;5063284;28;20225;-56
2022/07/08 10:51:58;;;;;;;1.43;1.33;;;27.20;97.10;;;;;;5062783;28;20252;-56
2022/07/08 10:54:27;;;;;;;3.13;1.00;;;27.60;98.20;;;;;;5063964;28;20189;-57
2022/07/08 10:56:58;;;;;;;1.03;0.93;;;27.50;95.40;;;;;;5070031;28;20272;-56
2022/07/08 10:59:26;;;;;;;1.53;1.33;;;26.80;97.40;;;;;;5064537;28;20547;-56
2022/07/08 11:01:55;;;;;;;1.97;0.90;;;26.20;96.70;;;;;;5068871;28;20670;-56
2022/07/08 11:04:28;;;;;;;1.43;1.10;;;26.00;97.80;;;;;;5070892;28;20197;-56
2022/07/08 11:06:57;;;;;;;1.13;0.90;;;25.90;99.90;;;;;;5069971;28;20205;-56
2022/07/08 11:09:24;;;;;;;0.73;0.63;;;25.40;98.70;;;;;;5061018;28;20197;-56
2022/07/08 11:11:51;;;;;;;1.40;1.03;;;25.30;97.70;;;;;;5068918;28;20278;-55
2022/07/08 11:14:20;;;;;;;0.77;0.77;;;25.10;99.80;;;;;;5070946;28;20196;-55
2022/07/08 11:16:47;;;;;;;1.50;0.90;;;24.70;99.90;;;;;;5074914;28;20826;-55
2022/07/08 11:19:14;;;;;;;0.77;0.60;;;24.40;98.00;;;;;;5064870;28;20201;-56
2022/07/08 11:21:41;;;;;;;1.10;0.90;;;24.20;99.00;;;;;;5068634;28;20216;-56
2022/07/08 11:24:09;;;;;;;1.27;1.00;;;24.20;97.60;;;;;;5074863;28;20197;-56
2022/07/08 11:26:37;;;;;;;0.70;0.70;;;24.10;98.60;;;;;;5074779;28;20293;-56
2022/07/08 11:29:04;;;;;;;0.80;0.80;;;24.30;97.30;;;;;;5065172;28;20694;-56
2022/07/08 11:31:33;;;;;;;1.00;1.00;;;24.30;98.70;;;;;;5073806;28;20637;-56
2022/07/08 11:34:00;;;;;;;1.30;0.90;;;24.30;99.90;;;;;;5073945;28;20314;-56
2022/07/08 11:36:27;;;;;;;1.17;0.60;;;24.20;99.40;;;;;;5074387;28;20197;-55
2022/07/08 11:38:54;;;;;;;0.60;0.60;;;24.30;99.90;;;;;;5064801;28;20672;-56
2022/07/08 11:41:21;;;;;;;0.73;0.73;;;24.30;99.90;;;;;;5072131;28;20223;-55
2022/07/08 11:43:51;;;;;;;1.00;1.00;;;23.80;97.60;;;;;;5074616;28;20200;-55
2022/07/08 11:46:20;;;;;;;0.97;0.97;;;23.70;99.70;;;;;;5069022;28;20225;-56
2022/07/08 11:48:48;;;;;;;1.90;1.23;;;23.50;99.90;;;;;;5069741;28;20263;-55
2022/07/08 11:51:16;;;;;;;2.33;0.80;;;23.60;99.90;;;;;;5065226;28;20289;-55
2022/07/08 11:53:44;;;;;;;1.90;0.53;;;23.80;98.90;;;;;;5074428;28;20197;-56
2022/07/08 11:56:11;;;;;;;0.60;0.60;;;23.90;99.90;;;;;;5074603;28;20254;-56
2022/07/08 11:58:39;;;;;;;2.13;0.50;;;23.70;98.40;;;;;;5069403;28;20662;-55
2022/07/08 12:01:06;;;;;;;0.73;0.53;;;23.70;97.10;;;;;;5073503;28;21058;-55
2022/07/08 12:03:34;;;;;;;0.50;0.50;;;23.60;97.70;;;;;;5074379;28;20266;-56
2022/07/08 12:06:04;;;;;;;0.60;0.50;;;23.60;97.50;;;;;;5074327;28;20197;-56
2022/07/08 12:08:33;;;;;;;1.13;0.70;;;23.30;98.20;;;;;;5066672;28;20228;-56
2022/07/08 12:11:15;;;;;;;1.40;0.60;;;23.30;99.40;;;;;;5071641;28;20232;-55
2022/07/08 12:13:44;;;;;;;0.50;0.50;;;22.90;97.60;;;;;;5074068;28;20192;-55
2022/07/08 12:16:11;;;;;;;0.63;0.40;;;22.80;97.20;;;;;;5074011;28;20208;-56
2022/07/08 12:18:44;;;;;;;0.93;0.50;;;23.00;97.00;;;;;;5065502;28;20198;-56
2022/07/08 12:21:21;;;;;;;1.70;0.40;;;23.00;99.70;;;;;;5065162;28;20228;-55
2022/07/08 12:23:56;;;;;;;0.50;0.50;;;23.00;97.90;;;;;;5072269;28;20251;-55
2022/07/08 12:26:23;;;;;;;0.43;0.37;;;22.90;97.40;;;;;;5073587;28;20686;-55
2022/07/08 12:28:50;;;;;;;2.67;0.63;;;22.90;95.80;;;;;;5064530;28;20221;-56
2022/07/08 12:31:32;;;;;;;1.33;0.60;;;22.90;97.00;;;;;;5067649;28;20272;-55
2022/07/08 12:34:01;;;;;;;2.63;1.00;;;22.90;95.40;;;;;;5072538;28;20277;-55
2022/07/08 12:36:31;;;;;;;0.77;0.30;;;22.80;95.20;;;;;;5071131;28;20201;-55
2022/07/08 12:38:58;;;;;;;2.53;0.40;;;22.80;95.20;;;;;;5071499;28;20224;-55
2022/07/08 12:41:25;;;;;;;2.10;0.50;;;22.80;97.50;;;;;;5071515;28;20217;-56
2022/07/08 12:43:52;;;;;;;1.73;0.30;;;22.90;97.20;;;;;;5071026;28;20712;-56
2022/07/08 12:46:19;;;;;;;0.40;0.40;;;22.90;94.40;;;;;;5073241;28;20198;-55
2022/07/08 12:48:47;;;;;;;0.70;0.67;;;23.00;96.40;;;;;;5072070;28;20633;-55
2022/07/08 12:51:14;;;;;;;0.60;0.50;;;23.10;98.00;;;;;;5071372;28;20227;-55